Diadema, Brazil
Current Conditions -  °F | °C
As of 3:00 AM on Saturday 29 Nov 2014 (Local Time) from SBSP Reporting Station
Drizzle Drizzle  
Wind Chill: 64°   Ceiling: 700
Heat Index: 64°   Visibility: 4mi
Dew Point: 61°   Wind: 10mph
Humidity: 88%   Direction: 120°ESE
Pressure: 30.12"   Gusts: NA
Location:  23.69°S, 46.61°W
Report Text: SBSP 290500Z 12009KT 7000 -DZ BKN007 BKN009 18/16 Q1020
Loading
Personal Weather Stations






























Interactive Weather Map New forecast layout! Learn more

10-Day Weather Forecast

Advertisements
Track Severe Weather on mobile